createdAt,value
2023-02-08T00:01:08.033Z,2.44
2023-02-08T00:03:36.004Z,2.42
2023-02-08T00:06:04.343Z,2.50
2023-02-08T00:08:32.951Z,2.52
2023-02-08T00:11:02.225Z,2.55
2023-02-08T00:13:30.204Z,2.54
2023-02-08T00:15:58.216Z,2.56
2023-02-08T00:18:26.180Z,2.48
2023-02-08T00:20:55.602Z,2.47
2023-02-08T00:23:23.420Z,2.50
2023-02-08T00:25:51.257Z,2.51
2023-02-08T00:28:20.886Z,2.44
2023-02-08T00:30:49.944Z,2.52
2023-02-08T00:33:17.887Z,2.56
2023-02-08T00:35:45.836Z,2.52
2023-02-08T00:38:13.737Z,2.55
2023-02-08T00:40:42.082Z,2.55
2023-02-08T00:43:10.048Z,2.52
2023-02-08T00:45:39.862Z,2.54
2023-02-08T00:48:08.082Z,2.58
2023-02-08T00:50:43.374Z,2.60
2023-02-08T00:53:11.312Z,2.61
2023-02-08T00:55:39.111Z,2.56
2023-02-08T00:58:06.980Z,2.59
2023-02-08T01:00:34.855Z,2.65
2023-02-08T01:03:04.808Z,2.65
2023-02-08T01:05:32.661Z,2.69
2023-02-08T01:08:00.591Z,2.69
2023-02-08T01:10:28.526Z,2.73
2023-02-08T01:12:56.419Z,2.75
2023-02-08T01:15:24.302Z,2.79
2023-02-08T01:17:54.833Z,2.74
2023-02-08T01:20:25.062Z,2.83
2023-02-08T01:22:52.860Z,2.83
2023-02-08T01:25:20.770Z,2.83
2023-02-08T01:27:48.774Z,2.81
2023-02-08T01:30:17.594Z,2.89
2023-02-08T01:32:45.516Z,2.87
2023-02-08T01:35:13.677Z,2.91
2023-02-08T01:37:43.028Z,2.93
2023-02-08T01:40:12.187Z,2.94
2023-02-08T01:42:40.194Z,2.96
2023-02-08T01:45:30.071Z,2.98
2023-02-08T01:48:04.432Z,2.96
2023-02-08T01:50:37.563Z,2.98
2023-02-08T01:53:07.430Z,3.00
2023-02-08T01:55:39.554Z,2.93
2023-02-08T01:58:12.555Z,2.88
2023-02-08T02:00:41.115Z,2.94
2023-02-08T02:03:09.781Z,3.00
2023-02-08T02:05:42.444Z,3.00
2023-02-08T02:08:12.664Z,3.08
2023-02-08T02:10:42.591Z,3.01
2023-02-08T02:13:14.746Z,3.02
2023-02-08T02:15:44.608Z,3.07
2023-02-08T02:18:15.219Z,2.98
2023-02-08T02:20:59.997Z,3.05
2023-02-08T02:24:06.189Z,3.05
2023-02-08T02:27:05.838Z,3.10
2023-02-08T02:29:49.377Z,3.12
2023-02-08T02:32:36.067Z,3.09
2023-02-08T02:35:13.389Z,3.14
2023-02-08T02:37:54.038Z,3.00
2023-02-08T02:40:30.770Z,3.09
2023-02-08T02:43:29.472Z,3.16
2023-02-08T02:46:04.397Z,3.15
2023-02-08T02:48:39.852Z,3.05
2023-02-08T02:51:13.535Z,3.11
2023-02-08T02:53:48.911Z,3.15
2023-02-08T02:56:21.098Z,3.14
2023-02-08T02:58:49.640Z,2.98
2023-02-08T03:01:26.015Z,3.06
2023-02-08T03:03:54.809Z,3.12
2023-02-08T03:06:38.904Z,3.14
2023-02-08T03:09:22.875Z,3.07
2023-02-08T03:11:58.293Z,3.14
2023-02-08T03:14:35.946Z,3.17
2023-02-08T03:17:15.970Z,3.15
2023-02-08T03:19:52.124Z,3.17
2023-02-08T03:22:26.981Z,3.21
2023-02-08T03:24:58.085Z,3.20
2023-02-08T03:27:33.152Z,3.24
2023-02-08T03:30:07.314Z,3.19
2023-02-08T03:32:41.967Z,3.26
2023-02-08T03:35:16.282Z,3.26
2023-02-08T03:37:50.069Z,3.21
2023-02-08T03:40:22.097Z,3.21
2023-02-08T03:42:51.818Z,3.22
2023-02-08T03:45:25.068Z,3.17
2023-02-08T03:47:56.019Z,3.13
2023-02-08T03:50:25.119Z,3.16
2023-02-08T03:52:55.019Z,3.25
2023-02-08T03:55:26.535Z,3.23
2023-02-08T03:57:59.483Z,3.24
2023-02-08T04:00:28.987Z,3.29
2023-02-08T04:03:00.470Z,3.20
2023-02-08T04:05:29.417Z,3.16
2023-02-08T04:07:58.582Z,3.11
2023-02-08T04:10:26.600Z,3.27
2023-02-08T04:12:54.421Z,3.19
2023-02-08T04:15:22.268Z,3.19
2023-02-08T04:17:50.203Z,3.22
2023-02-08T04:20:18.207Z,3.26
2023-02-08T04:22:46.146Z,3.25
2023-02-08T04:25:15.545Z,3.27
2023-02-08T04:27:43.861Z,3.22
2023-02-08T04:30:13.149Z,3.32
2023-02-08T04:32:41.237Z,3.36
2023-02-08T04:35:09.260Z,3.31
2023-02-08T04:37:37.073Z,3.31
2023-02-08T04:40:05.623Z,3.38
2023-02-08T04:42:34.836Z,3.38
2023-02-08T04:45:02.652Z,3.43
2023-02-08T04:47:30.418Z,3.45
2023-02-08T04:49:58.200Z,3.42
2023-02-08T04:52:26.050Z,3.37
2023-02-08T04:54:53.926Z,3.37
2023-02-08T04:57:21.782Z,3.37
2023-02-08T04:59:51.164Z,3.39
2023-02-08T05:02:18.969Z,3.45
2023-02-08T05:04:46.810Z,3.45
2023-02-08T05:07:14.594Z,3.50
2023-02-08T05:09:42.455Z,3.46
2023-02-08T05:12:10.295Z,3.40
2023-02-08T05:14:38.161Z,3.39
2023-02-08T05:17:07.372Z,3.43
2023-02-08T05:19:35.189Z,3.43
2023-02-08T05:22:03.127Z,3.48
2023-02-08T05:24:31.109Z,3.36
2023-02-08T05:26:58.880Z,3.37
2023-02-08T05:29:26.962Z,3.29
2023-02-08T05:31:54.804Z,3.30
2023-02-08T05:34:24.107Z,3.26
2023-02-08T05:36:51.963Z,3.32
2023-02-08T05:39:19.815Z,3.34
2023-02-08T05:41:47.605Z,3.40
2023-02-08T05:44:15.424Z,3.40
2023-02-08T05:46:43.391Z,3.43
2023-02-08T05:49:11.269Z,3.37
2023-02-08T05:51:40.497Z,3.49
2023-02-08T05:54:08.339Z,3.46
2023-02-08T05:56:36.231Z,3.50
2023-02-08T05:59:04.885Z,3.49
2023-02-08T06:01:32.800Z,3.51
2023-02-08T06:04:01.003Z,3.51
2023-02-08T06:06:29.243Z,3.53
2023-02-08T06:08:58.492Z,3.49
2023-02-08T06:11:28.574Z,3.54
2023-02-08T06:13:56.873Z,3.51
2023-02-08T06:16:24.853Z,3.48
2023-02-08T06:18:52.630Z,3.52
2023-02-08T06:21:20.408Z,3.57
2023-02-08T06:23:48.246Z,3.58
2023-02-08T06:26:17.964Z,3.59
2023-02-08T06:28:45.812Z,3.61
2023-02-08T06:31:15.401Z,3.67
2023-02-08T06:33:43.291Z,3.63
2023-02-08T06:36:11.392Z,3.65
2023-02-08T06:38:39.336Z,3.65
2023-02-08T06:41:07.145Z,3.69
2023-02-08T06:43:36.389Z,3.65
2023-02-08T06:46:05.000Z,3.72
2023-02-08T06:48:33.081Z,3.64
2023-02-08T06:51:00.979Z,3.76
2023-02-08T06:53:28.718Z,3.70
2023-02-08T06:55:56.728Z,3.73
2023-02-08T06:58:24.688Z,3.76
2023-02-08T07:00:53.876Z,3.75
2023-02-08T07:03:22.666Z,3.80
2023-02-08T07:06:04.049Z,3.83
2023-02-08T07:08:32.261Z,3.85
2023-02-08T07:11:00.069Z,3.85
2023-02-08T07:13:28.025Z,3.84
2023-02-08T07:15:57.201Z,3.87
2023-02-08T07:18:25.113Z,3.93
2023-02-08T07:20:53.066Z,3.86
2023-02-08T07:23:20.921Z,3.88
2023-02-08T07:25:58.281Z,3.84
2023-02-08T07:28:26.520Z,3.91
2023-02-08T07:30:54.844Z,3.97
2023-02-08T07:33:25.019Z,3.99
2023-02-08T07:35:53.222Z,4.00
2023-02-08T07:38:21.108Z,3.98
2023-02-08T07:40:48.948Z,4.02
2023-02-08T07:43:16.833Z,4.06
2023-02-08T07:45:44.727Z,4.06
2023-02-08T07:48:12.510Z,4.10
2023-02-08T07:50:41.932Z,4.15
2023-02-08T07:53:10.488Z,4.12
2023-02-08T07:55:38.305Z,4.15
2023-02-08T07:58:06.123Z,4.11
2023-02-08T08:00:33.912Z,4.17
2023-02-08T08:03:01.738Z,4.15
2023-02-08T08:05:29.596Z,4.24
2023-02-08T08:07:58.855Z,4.25
2023-02-08T08:10:26.711Z,4.24
2023-02-08T08:12:54.660Z,4.29
2023-02-08T08:15:22.409Z,4.32
2023-02-08T08:17:50.281Z,4.28
2023-02-08T08:20:18.629Z,4.33
2023-02-08T08:22:47.589Z,4.30
2023-02-08T08:25:16.947Z,4.33
2023-02-08T08:27:45.041Z,4.43
2023-02-08T08:30:15.183Z,4.42
2023-02-08T08:32:43.094Z,4.40
2023-02-08T08:35:11.534Z,4.46
2023-02-08T08:37:39.370Z,4.52
2023-02-08T08:40:08.843Z,4.61
2023-02-08T08:42:39.838Z,4.63
2023-02-08T08:45:09.552Z,4.58
2023-02-08T08:47:37.317Z,4.59
2023-02-08T08:50:05.347Z,4.63
2023-02-08T08:52:33.495Z,4.64
2023-02-08T08:55:01.324Z,4.70
2023-02-08T08:57:29.192Z,4.69
2023-02-08T08:59:58.470Z,4.69
2023-02-08T09:02:26.486Z,4.54
2023-02-08T09:04:54.337Z,4.68
2023-02-08T09:07:22.211Z,4.69
2023-02-08T09:09:50.104Z,4.73
2023-02-08T09:12:18.328Z,4.76
2023-02-08T09:14:46.179Z,4.77
2023-02-08T09:17:15.503Z,4.76
2023-02-08T09:19:43.543Z,4.75
2023-02-08T09:22:11.345Z,4.79
2023-02-08T09:24:40.126Z,4.83
2023-02-08T09:27:08.077Z,4.86
2023-02-08T09:29:36.171Z,4.94
2023-02-08T09:32:04.495Z,4.93
2023-02-08T09:34:33.638Z,4.97
2023-02-08T09:37:01.463Z,5.00
2023-02-08T09:39:29.326Z,5.00
2023-02-08T09:42:30.128Z,4.98
2023-02-08T09:45:18.895Z,5.02
2023-02-08T09:47:53.417Z,5.09
2023-02-08T09:50:29.617Z,5.17
2023-02-08T09:53:05.350Z,5.14
2023-02-08T09:55:38.198Z,5.19
2023-02-08T09:58:17.814Z,5.21
2023-02-08T10:00:50.902Z,5.24
2023-02-08T10:03:30.290Z,5.17
2023-02-08T10:05:59.677Z,4.97
2023-02-08T10:08:35.196Z,5.14
2023-02-08T10:11:21.993Z,5.14
2023-02-08T10:14:17.180Z,5.11
2023-02-08T10:16:56.588Z,5.13
2023-02-08T10:19:42.585Z,5.16
2023-02-08T10:22:25.796Z,5.22
2023-02-08T10:25:12.921Z,5.12
2023-02-08T10:27:49.010Z,5.21
2023-02-08T10:30:25.962Z,5.24
2023-02-08T10:33:01.575Z,5.21
2023-02-08T10:35:37.050Z,4.98
2023-02-08T10:38:44.099Z,5.28
2023-02-08T10:41:19.608Z,5.32
2023-02-08T10:43:52.803Z,5.34
2023-02-08T10:46:26.873Z,5.41
2023-02-08T10:49:05.010Z,5.41
2023-02-08T10:51:32.884Z,5.43
2023-02-08T10:54:02.142Z,5.45
2023-02-08T10:56:40.634Z,5.45
2023-02-08T10:59:16.384Z,5.53
2023-02-08T11:01:46.341Z,5.57
2023-02-08T11:04:14.831Z,5.55
2023-02-08T11:06:44.247Z,5.59
2023-02-08T11:09:24.934Z,5.63
2023-02-08T11:11:53.666Z,5.63
2023-02-08T11:14:34.984Z,5.59
2023-02-08T11:17:03.281Z,5.65
2023-02-08T11:19:42.534Z,5.66
2023-02-08T11:22:17.169Z,5.69
2023-02-08T11:24:50.492Z,5.72
2023-02-08T11:27:30.019Z,5.76
2023-02-08T11:30:20.567Z,5.82
2023-02-08T11:32:50.734Z,5.84
2023-02-08T11:35:25.700Z,5.84
2023-02-08T11:37:55.324Z,5.88
2023-02-08T11:40:28.957Z,5.86
2023-02-08T11:42:57.792Z,5.86
2023-02-08T11:45:28.562Z,5.63
2023-02-08T11:47:57.182Z,5.79
2023-02-08T11:50:28.026Z,5.82
2023-02-08T11:53:00.475Z,5.84
2023-02-08T11:55:32.973Z,5.80
2023-02-08T11:58:03.700Z,5.81
2023-02-08T12:00:34.161Z,5.82
2023-02-08T12:03:05.105Z,5.82
2023-02-08T12:05:42.871Z,5.81
2023-02-08T12:08:24.792Z,5.85
2023-02-08T12:11:08.996Z,5.84
2023-02-08T12:13:59.771Z,5.80
2023-02-08T12:16:42.875Z,5.77
2023-02-08T12:19:34.629Z,5.80
2023-02-08T12:22:09.222Z,5.79
2023-02-08T12:24:48.455Z,5.84
2023-02-08T12:27:29.455Z,5.90
2023-02-08T12:30:04.288Z,5.87
2023-02-08T12:32:51.347Z,5.87
2023-02-08T12:35:43.538Z,5.83
2023-02-08T12:38:41.902Z,5.83
2023-02-08T12:41:19.711Z,5.80
2023-02-08T12:43:58.407Z,5.90
2023-02-08T12:46:47.823Z,5.90
2023-02-08T12:49:36.842Z,5.84
2023-02-08T12:52:13.669Z,5.85
2023-02-08T12:54:46.110Z,5.79
2023-02-08T12:57:17.797Z,5.81
2023-02-08T12:59:49.414Z,5.77
2023-02-08T13:02:21.859Z,5.84
2023-02-08T13:04:55.016Z,5.82
2023-02-08T13:07:28.484Z,5.79
2023-02-08T13:10:02.627Z,5.80
2023-02-08T13:12:33.500Z,5.82
2023-02-08T13:15:09.240Z,5.82
2023-02-08T13:17:47.028Z,5.87
2023-02-08T13:20:33.536Z,5.86
2023-02-08T13:23:04.672Z,5.82
2023-02-08T13:25:37.368Z,5.79
2023-02-08T13:28:09.046Z,5.81
2023-02-08T13:30:40.505Z,5.71
2023-02-08T13:33:17.610Z,5.74
2023-02-08T13:35:51.441Z,5.83
2023-02-08T13:38:29.405Z,5.85
2023-02-08T13:41:05.799Z,5.85
2023-02-08T13:43:40.335Z,5.84
2023-02-08T13:46:11.706Z,5.80
2023-02-08T13:48:46.068Z,5.82
2023-02-08T13:52:03.458Z,5.82
2023-02-08T13:54:31.454Z,5.76
2023-02-08T13:56:59.343Z,5.76
2023-02-08T13:59:38.105Z,5.78
2023-02-08T14:02:31.914Z,5.74
2023-02-08T14:05:44.872Z,5.75
2023-02-08T14:08:22.403Z,5.72
2023-02-08T14:11:03.474Z,5.71
2023-02-08T14:13:36.210Z,5.72
2023-02-08T14:16:29.431Z,5.75
2023-02-08T14:19:01.454Z,5.67
2023-02-08T14:21:34.359Z,5.67
2023-02-08T14:24:06.037Z,5.69
2023-02-08T14:26:34.656Z,5.67
2023-02-08T14:29:06.326Z,5.70
2023-02-08T14:31:43.609Z,5.68
2023-02-08T14:34:29.671Z,5.68
2023-02-08T14:37:04.227Z,5.66
2023-02-08T14:39:35.478Z,5.65
2023-02-08T14:42:07.284Z,5.63
2023-02-08T14:45:00.512Z,5.64
2023-02-08T14:47:54.481Z,5.59
2023-02-08T14:50:27.173Z,5.59
2023-02-08T14:53:02.257Z,5.60
2023-02-08T14:55:33.466Z,5.59
2023-02-08T14:58:02.835Z,5.60
2023-02-08T15:00:34.872Z,5.59
2023-02-08T15:03:05.967Z,5.56
2023-02-08T15:05:42.208Z,5.51
2023-02-08T15:08:10.331Z,5.51
2023-02-08T15:10:44.842Z,5.48
2023-02-08T15:13:20.417Z,5.48
2023-02-08T15:15:53.449Z,5.44
2023-02-08T15:18:23.893Z,5.36
2023-02-08T15:21:03.291Z,5.36
2023-02-08T15:23:31.968Z,5.24
2023-02-08T15:26:02.878Z,5.24
2023-02-08T15:28:32.380Z,5.25
2023-02-08T15:31:03.495Z,5.22
2023-02-08T15:33:32.311Z,5.16
2023-02-08T15:36:06.283Z,5.13
2023-02-08T15:38:38.509Z,5.14
2023-02-08T15:41:08.547Z,5.13
2023-02-08T15:43:37.759Z,5.12
2023-02-08T15:46:08.463Z,5.12
2023-02-08T15:48:45.665Z,5.10
2023-02-08T15:51:16.248Z,5.05
2023-02-08T15:53:47.909Z,5.04
2023-02-08T15:56:30.410Z,5.03
2023-02-08T15:59:05.268Z,4.98
2023-02-08T16:01:33.439Z,4.93
2023-02-08T16:04:08.338Z,4.96
2023-02-08T16:06:40.408Z,4.91
2023-02-08T16:09:08.336Z,4.93
2023-02-08T16:11:37.428Z,4.94
2023-02-08T16:14:07.817Z,4.94
2023-02-08T16:16:41.742Z,4.95
2023-02-08T16:19:22.556Z,4.91
2023-02-08T16:21:52.975Z,4.92
2023-02-08T16:24:24.193Z,4.92
2023-02-08T16:27:02.642Z,4.86
2023-02-08T16:29:32.328Z,4.84
2023-02-08T16:32:13.135Z,4.82
2023-02-08T16:34:41.814Z,4.77
2023-02-08T16:37:24.244Z,4.72
2023-02-08T16:39:54.900Z,4.72
2023-02-08T16:42:30.263Z,4.72
2023-02-08T16:45:17.937Z,4.69
2023-02-08T16:47:49.493Z,4.60
2023-02-08T16:50:19.810Z,4.66
2023-02-08T16:52:54.067Z,4.63
2023-02-08T16:55:24.616Z,4.63
2023-02-08T16:57:53.608Z,4.64
2023-02-08T17:00:25.610Z,4.66
2023-02-08T17:02:54.251Z,4.64
2023-02-08T17:05:23.682Z,4.64
2023-02-08T17:07:53.347Z,4.58
2023-02-08T17:10:28.942Z,4.54
2023-02-08T17:13:07.026Z,4.52
2023-02-08T17:15:45.906Z,4.48
2023-02-08T17:18:14.280Z,4.56
2023-02-08T17:20:42.679Z,4.56
2023-02-08T17:23:12.177Z,4.49
2023-02-08T17:25:40.358Z,4.46
2023-02-08T17:28:12.692Z,4.52
2023-02-08T17:30:43.158Z,4.49
2023-02-08T17:33:18.134Z,4.50
2023-02-08T17:35:47.495Z,4.46
2023-02-08T17:38:17.409Z,4.44
2023-02-08T17:40:46.011Z,4.43
2023-02-08T17:43:14.657Z,4.42
2023-02-08T17:45:44.940Z,4.40
2023-02-08T17:48:14.485Z,4.42
2023-02-08T17:50:44.248Z,4.43
2023-02-08T17:53:12.298Z,4.38
2023-02-08T17:55:44.140Z,4.38
2023-02-08T17:58:12.111Z,4.36
2023-02-08T18:00:39.970Z,4.40
2023-02-08T18:03:07.832Z,4.43
2023-02-08T18:05:36.947Z,4.38
2023-02-08T18:08:04.902Z,4.41
2023-02-08T18:10:32.883Z,4.30
2023-02-08T18:13:02.146Z,4.19
2023-02-08T18:15:29.980Z,4.37
2023-02-08T18:17:58.055Z,4.35
2023-02-08T18:20:25.874Z,4.35
2023-02-08T18:22:53.691Z,4.39
2023-02-08T18:25:21.701Z,4.39
2023-02-08T18:27:50.071Z,4.23
2023-02-08T18:30:20.385Z,4.35
2023-02-08T18:32:48.317Z,4.37
2023-02-08T18:35:16.144Z,4.36
2023-02-08T18:37:43.974Z,4.36
2023-02-08T18:40:12.842Z,4.27
2023-02-08T18:42:40.709Z,4.34
2023-02-08T18:45:09.893Z,4.29
2023-02-08T18:47:39.534Z,4.27
2023-02-08T18:50:09.187Z,4.30
2023-02-08T18:52:37.335Z,4.27
2023-02-08T18:55:05.506Z,4.33
2023-02-08T18:57:33.453Z,4.32
2023-02-08T19:00:01.232Z,4.27
2023-02-08T19:02:29.118Z,4.27
2023-02-08T19:04:58.612Z,4.24
2023-02-08T19:07:26.457Z,4.27
2023-02-08T19:09:54.295Z,4.28
2023-02-08T19:12:22.163Z,4.26
2023-02-08T19:14:51.210Z,4.26
2023-02-08T19:17:19.297Z,4.24
2023-02-08T19:19:47.421Z,4.23
2023-02-08T19:22:16.538Z,4.22
2023-02-08T19:24:44.565Z,4.21
2023-02-08T19:27:12.407Z,4.19
2023-02-08T19:29:40.317Z,4.18
2023-02-08T19:32:09.049Z,4.16
2023-02-08T19:34:37.017Z,4.11
2023-02-08T19:37:04.795Z,4.10
2023-02-08T19:39:34.074Z,4.03
2023-02-08T19:42:01.911Z,4.07
2023-02-08T19:44:30.779Z,4.03
2023-02-08T19:46:59.678Z,4.02
2023-02-08T19:49:28.473Z,4.00
2023-02-08T19:51:56.817Z,3.96
2023-02-08T19:54:27.393Z,3.95
2023-02-08T19:56:56.626Z,3.94
2023-02-08T19:59:27.423Z,3.87
2023-02-08T20:01:56.563Z,3.79
2023-02-08T20:04:24.456Z,3.65
2023-02-08T20:06:53.341Z,3.63
2023-02-08T20:09:21.731Z,3.62
2023-02-08T20:11:57.342Z,3.56
2023-02-08T20:14:29.129Z,3.59
2023-02-08T20:16:57.042Z,3.59
2023-02-08T20:19:24.847Z,3.57
2023-02-08T20:21:53.381Z,3.51
2023-02-08T20:24:21.207Z,3.39
2023-02-08T20:26:50.001Z,3.35
2023-02-08T20:29:18.266Z,3.28
2023-02-08T20:31:48.876Z,3.17
2023-02-08T20:34:18.919Z,3.06
2023-02-08T20:37:05.285Z,3.01
2023-02-08T20:39:34.672Z,2.95
2023-02-08T20:42:02.566Z,2.88
2023-02-08T20:44:31.527Z,2.88
2023-02-08T20:47:00.809Z,2.90
2023-02-08T20:49:29.446Z,2.89
2023-02-08T20:51:57.345Z,2.93
2023-02-08T20:54:25.542Z,2.98
2023-02-08T20:56:54.120Z,3.07
2023-02-08T20:59:22.712Z,3.06
2023-02-08T21:01:50.667Z,3.00
2023-02-08T21:04:23.192Z,2.97
2023-02-08T21:06:51.804Z,2.90
2023-02-08T21:09:21.097Z,2.78
2023-02-08T21:11:49.859Z,2.71
2023-02-08T21:14:20.740Z,2.61
2023-02-08T21:16:49.416Z,2.52
2023-02-08T21:19:20.575Z,2.42
2023-02-08T21:21:51.665Z,2.31
2023-02-08T21:24:19.653Z,2.28
2023-02-08T21:26:47.762Z,2.24
2023-02-08T21:29:15.561Z,2.12
2023-02-08T21:31:43.670Z,2.08
2023-02-08T21:34:12.954Z,2.00
2023-02-08T21:36:42.162Z,1.98
2023-02-08T21:39:09.945Z,1.92
2023-02-08T21:41:37.844Z,1.86
2023-02-08T21:44:08.298Z,1.83
2023-02-08T21:46:36.339Z,1.81
2023-02-08T21:49:23.266Z,1.76
2023-02-08T21:52:10.351Z,1.70
2023-02-08T21:54:44.669Z,1.66
2023-02-08T21:57:15.917Z,1.64
2023-02-08T21:59:44.448Z,1.65
2023-02-08T22:02:16.063Z,1.61
2023-02-08T22:05:01.713Z,1.57
2023-02-08T22:07:41.419Z,1.51
2023-02-08T22:10:10.332Z,1.42
2023-02-08T22:12:40.325Z,1.43
2023-02-08T22:15:09.182Z,1.34
2023-02-08T22:17:37.147Z,1.34
2023-02-08T22:20:06.243Z,1.32
2023-02-08T22:22:35.384Z,1.31
2023-02-08T22:25:03.184Z,1.30
2023-02-08T22:27:31.264Z,1.25
2023-02-08T22:29:59.147Z,1.20
2023-02-08T22:32:27.108Z,1.18
2023-02-08T22:34:54.967Z,1.09
2023-02-08T22:37:22.857Z,1.10
2023-02-08T22:39:52.136Z,1.09
2023-02-08T22:42:19.949Z,1.05
2023-02-08T22:44:47.868Z,1.06
2023-02-08T22:47:15.741Z,1.03
2023-02-08T22:49:43.554Z,1.03
2023-02-08T22:52:11.729Z,0.99
2023-02-08T22:54:39.883Z,1.01
2023-02-08T22:57:09.990Z,1.00
2023-02-08T22:59:38.862Z,1.01
2023-02-08T23:02:07.177Z,1.05
2023-02-08T23:04:35.009Z,1.04
2023-02-08T23:07:03.306Z,1.07
2023-02-08T23:09:31.232Z,1.08
2023-02-08T23:11:59.000Z,1.07
2023-02-08T23:14:29.223Z,1.09
2023-02-08T23:16:57.032Z,1.07
2023-02-08T23:19:25.054Z,1.07
2023-02-08T23:21:52.976Z,1.04
2023-02-08T23:24:20.949Z,1.02
2023-02-08T23:26:48.777Z,1.01
2023-02-08T23:29:16.697Z,0.91
2023-02-08T23:31:46.078Z,1.07
2023-02-08T23:34:14.081Z,1.04
2023-02-08T23:36:42.070Z,1.07
2023-02-08T23:39:09.939Z,1.01
2023-02-08T23:41:37.739Z,1.11
2023-02-08T23:44:05.890Z,1.11
2023-02-08T23:46:34.160Z,1.11
2023-02-08T23:49:03.373Z,1.12
2023-02-08T23:51:31.326Z,1.11
2023-02-08T23:53:59.132Z,1.06
2023-02-08T23:56:29.014Z,1.04
2023-02-08T23:58:58.976Z,1.09
